sensor_id;sensor_type;location;lat;lon;timestamp;pressure;altitude;pressure_sealevel;temperature;humidity
18813;BME280;9534;51.140;6.296;2022-07-17T00:00:43;101604.59;;;13.17;100.00
18813;BME280;9534;51.140;6.296;2022-07-17T00:04:46;101598.84;;;13.12;100.00
18813;BME280;9534;51.140;6.296;2022-07-17T00:08:49;101585.41;;;12.96;100.00
18813;BME280;9534;51.140;6.296;2022-07-17T00:12:52;101599.31;;;12.88;100.00
18813;BME280;9534;51.140;6.296;2022-07-17T00:16:57;101594.41;;;13.04;100.00
18813;BME280;9534;51.140;6.296;2022-07-17T00:21:00;101601.41;;;12.86;100.00
18813;BME280;9534;51.140;6.296;2022-07-17T00:25:04;101598.06;;;12.84;100.00
18813;BME280;9534;51.140;6.296;2022-07-17T00:29:07;101598.47;;;12.87;100.00
18813;BME280;9534;51.140;6.296;2022-07-17T00:33:12;101588.25;;;12.75;100.00
18813;BME280;9534;51.140;6.296;2022-07-17T00:37:15;101589.81;;;12.56;100.00
18813;BME280;9534;51.140;6.296;2022-07-17T00:41:18;101592.75;;;12.55;100.00
18813;BME280;9534;51.140;6.296;2022-07-17T00:45:21;101596.16;;;12.57;100.00
18813;BME280;9534;51.140;6.296;2022-07-17T00:49:28;101596.00;;;12.37;100.00
18813;BME280;9534;51.140;6.296;2022-07-17T00:53:32;101598.03;;;12.29;100.00
18813;BME280;9534;51.140;6.296;2022-07-17T00:57:36;101601.81;;;12.28;100.00
18813;BME280;9534;51.140;6.296;2022-07-17T01:01:42;101601.31;;;12.18;100.00
18813;BME280;9534;51.140;6.296;2022-07-17T01:05:47;101594.91;;;12.11;100.00
18813;BME280;9534;51.140;6.296;2022-07-17T01:09:50;101599.94;;;12.08;100.00
18813;BME280;9534;51.140;6.296;2022-07-17T01:13:53;101597.88;;;12.10;100.00
18813;BME280;9534;51.140;6.296;2022-07-17T01:17:57;101587.16;;;11.94;100.00
18813;BME280;9534;51.140;6.296;2022-07-17T01:22:03;101592.31;;;11.82;100.00
18813;BME280;9534;51.140;6.296;2022-07-17T01:26:06;101595.44;;;11.79;100.00
18813;BME280;9534;51.140;6.296;2022-07-17T01:30:09;101591.19;;;11.77;100.00
18813;BME280;9534;51.140;6.296;2022-07-17T01:34:13;101594.91;;;11.69;100.00
18813;BME280;9534;51.140;6.296;2022-07-17T01:38:17;101599.09;;;11.65;100.00
18813;BME280;9534;51.140;6.296;2022-07-17T01:42:21;101597.47;;;11.56;100.00
18813;BME280;9534;51.140;6.296;2022-07-17T01:46:24;101607.63;;;11.41;100.00
18813;BME280;9534;51.140;6.296;2022-07-17T01:50:27;101595.81;;;11.41;100.00
18813;BME280;9534;51.140;6.296;2022-07-17T01:54:33;101595.34;;;11.37;100.00
18813;BME280;9534;51.140;6.296;2022-07-17T01:58:36;101595.53;;;11.21;100.00
18813;BME280;9534;51.140;6.296;2022-07-17T02:02:39;101589.69;;;11.24;100.00
18813;BME280;9534;51.140;6.296;2022-07-17T02:11:24;101581.19;;;11.19;100.00
18813;BME280;9534;51.140;6.296;2022-07-17T02:15:28;101586.41;;;11.14;100.00
18813;BME280;9534;51.140;6.296;2022-07-17T02:19:31;101583.13;;;11.05;100.00
18813;BME280;9534;51.140;6.296;2022-07-17T02:23:34;101590.13;;;10.93;100.00
18813;BME280;9534;51.140;6.296;2022-07-17T02:27:39;101584.72;;;10.85;100.00
18813;BME280;9534;51.140;6.296;2022-07-17T02:31:43;101595.41;;;10.80;100.00
18813;BME280;9534;51.140;6.296;2022-07-17T02:35:46;101587.72;;;10.75;100.00
18813;BME280;9534;51.140;6.296;2022-07-17T02:39:49;101592.84;;;10.78;100.00
18813;BME280;9534;51.140;6.296;2022-07-17T02:43:56;101602.94;;;10.78;100.00
18813;BME280;9534;51.140;6.296;2022-07-17T02:47:59;101603.13;;;10.76;100.00
18813;BME280;9534;51.140;6.296;2022-07-17T02:52:03;101602.56;;;10.81;100.00
18813;BME280;9534;51.140;6.296;2022-07-17T02:56:06;101610.13;;;10.79;100.00
18813;BME280;9534;51.140;6.296;2022-07-17T03:00:12;101609.84;;;10.74;100.00
18813;BME280;9534;51.140;6.296;2022-07-17T03:04:17;101612.38;;;10.75;100.00
18813;BME280;9534;51.140;6.296;2022-07-17T03:08:20;101607.00;;;10.67;100.00
18813;BME280;9534;51.140;6.296;2022-07-17T03:12:23;101619.19;;;10.65;100.00
18813;BME280;9534;51.140;6.296;2022-07-17T03:16:27;101627.47;;;10.57;100.00
18813;BME280;9534;51.140;6.296;2022-07-17T03:20:30;101613.41;;;10.45;100.00
18813;BME280;9534;51.140;6.296;2022-07-17T03:24:34;101624.50;;;10.44;100.00
18813;BME280;9534;51.140;6.296;2022-07-17T03:28:37;101624.19;;;10.61;100.00
18813;BME280;9534;51.140;6.296;2022-07-17T03:32:42;101621.63;;;10.60;100.00
18813;BME280;9534;51.140;6.296;2022-07-17T03:36:45;101620.22;;;10.64;100.00
18813;BME280;9534;51.140;6.296;2022-07-17T03:40:48;101615.59;;;10.64;100.00
18813;BME280;9534;51.140;6.296;2022-07-17T03:44:51;101609.84;;;10.74;100.00
18813;BME280;9534;51.140;6.296;2022-07-17T03:48:56;101603.69;;;10.72;100.00
18813;BME280;9534;51.140;6.296;2022-07-17T03:52:59;101603.63;;;10.65;100.00
18813;BME280;9534;51.140;6.296;2022-07-17T03:57:02;101609.88;;;10.37;100.00
18813;BME280;9534;51.140;6.296;2022-07-17T04:01:05;101624.78;;;10.34;100.00
18813;BME280;9534;51.140;6.296;2022-07-17T04:05:10;101616.06;;;10.31;100.00
18813;BME280;9534;51.140;6.296;2022-07-17T04:09:13;101607.50;;;10.34;100.00
18813;BME280;9534;51.140;6.296;2022-07-17T04:13:16;101623.53;;;10.37;100.00
18813;BME280;9534;51.140;6.296;2022-07-17T04:17:20;101621.47;;;10.39;100.00
18813;BME280;9534;51.140;6.296;2022-07-17T04:21:24;101629.69;;;10.39;100.00
18813;BME280;9534;51.140;6.296;2022-07-17T04:25:28;101629.69;;;10.39;100.00
18813;BME280;9534;51.140;6.296;2022-07-17T04:29:31;101634.41;;;10.45;100.00
18813;BME280;9534;51.140;6.296;2022-07-17T04:33:34;101625.75;;;10.56;100.00
18813;BME280;9534;51.140;6.296;2022-07-17T04:37:39;101632.84;;;10.65;100.00
18813;BME280;9534;51.140;6.296;2022-07-17T04:41:42;101636.94;;;10.69;100.00
18813;BME280;9534;51.140;6.296;2022-07-17T04:45:45;101635.97;;;10.76;100.00
18813;BME280;9534;51.140;6.296;2022-07-17T04:49:48;101640.53;;;10.84;100.00
18813;BME280;9534;51.140;6.296;2022-07-17T04:53:52;101636.59;;;11.01;100.00
18813;BME280;9534;51.140;6.296;2022-07-17T04:57:55;101642.25;;;11.13;100.00
18813;BME280;9534;51.140;6.296;2022-07-17T05:01:58;101633.53;;;11.24;100.00
18813;BME280;9534;51.140;6.296;2022-07-17T05:06:02;101635.50;;;11.30;100.00
18813;BME280;9534;51.140;6.296;2022-07-17T05:10:07;101647.31;;;11.45;100.00
18813;BME280;9534;51.140;6.296;2022-07-17T05:14:11;101654.44;;;11.61;100.00
18813;BME280;9534;51.140;6.296;2022-07-17T05:18:14;101638.00;;;11.75;100.00
18813;BME280;9534;51.140;6.296;2022-07-17T05:22:18;101656.88;;;11.99;100.00
18813;BME280;9534;51.140;6.296;2022-07-17T05:26:22;101652.78;;;12.16;100.00
18813;BME280;9534;51.140;6.296;2022-07-17T05:30:25;101650.91;;;12.37;100.00
18813;BME280;9534;51.140;6.296;2022-07-17T05:34:28;101667.56;;;12.57;100.00
18813;BME280;9534;51.140;6.296;2022-07-17T05:38:31;101659.22;;;12.71;100.00
18813;BME280;9534;51.140;6.296;2022-07-17T05:42:37;101660.66;;;12.95;100.00
18813;BME280;9534;51.140;6.296;2022-07-17T05:46:40;101655.38;;;13.21;100.00
18813;BME280;9534;51.140;6.296;2022-07-17T05:50:43;101639.50;;;13.57;100.00
18813;BME280;9534;51.140;6.296;2022-07-17T05:54:46;101637.00;;;13.74;100.00
18813;BME280;9534;51.140;6.296;2022-07-17T05:58:50;101637.91;;;13.94;100.00
18813;BME280;9534;51.140;6.296;2022-07-17T06:02:53;101638.69;;;14.48;100.00
18813;BME280;9534;51.140;6.296;2022-07-17T06:06:56;101627.84;;;14.66;100.00
18813;BME280;9534;51.140;6.296;2022-07-17T06:10:59;101626.56;;;14.75;100.00
18813;BME280;9534;51.140;6.296;2022-07-17T06:15:05;101634.59;;;15.09;100.00
18813;BME280;9534;51.140;6.296;2022-07-17T06:19:08;101628.22;;;15.15;100.00
18813;BME280;9534;51.140;6.296;2022-07-17T06:23:11;101622.41;;;15.42;100.00
18813;BME280;9534;51.140;6.296;2022-07-17T06:27:14;101615.50;;;15.71;100.00
18813;BME280;9534;51.140;6.296;2022-07-17T06:31:18;101603.88;;;16.00;100.00
18813;BME280;9534;51.140;6.296;2022-07-17T06:35:23;101603.78;;;16.12;100.00
18813;BME280;9534;51.140;6.296;2022-07-17T06:39:26;101610.31;;;16.24;100.00
18813;BME280;9534;51.140;6.296;2022-07-17T06:43:29;101611.41;;;16.41;100.00
18813;BME280;9534;51.140;6.296;2022-07-17T06:47:34;101612.69;;;16.45;100.00
18813;BME280;9534;51.140;6.296;2022-07-17T06:51:37;101607.41;;;16.68;100.00
18813;BME280;9534;51.140;6.296;2022-07-17T06:55:40;101601.59;;;16.76;100.00
18813;BME280;9534;51.140;6.296;2022-07-17T06:59:44;101599.69;;;16.95;100.00
18813;BME280;9534;51.140;6.296;2022-07-17T07:03:48;101602.56;;;17.06;100.00
18813;BME280;9534;51.140;6.296;2022-07-17T07:07:51;101602.56;;;17.24;100.00
18813;BME280;9534;51.140;6.296;2022-07-17T07:11:54;101598.56;;;17.38;100.00
18813;BME280;9534;51.140;6.296;2022-07-17T07:15:58;101590.31;;;17.85;100.00
18813;BME280;9534;51.140;6.296;2022-07-17T07:20:03;101592.63;;;18.00;100.00
18813;BME280;9534;51.140;6.296;2022-07-17T07:24:06;101608.53;;;18.34;100.00
18813;BME280;9534;51.140;6.296;2022-07-17T07:28:10;101609.44;;;18.46;100.00
18813;BME280;9534;51.140;6.296;2022-07-17T07:32:13;101603.16;;;18.39;100.00
18813;BME280;9534;51.140;6.296;2022-07-17T07:36:17;101606.81;;;18.51;100.00
18813;BME280;9534;51.140;6.296;2022-07-17T07:40:21;101617.47;;;18.76;100.00
18813;BME280;9534;51.140;6.296;2022-07-17T07:44:25;101621.78;;;18.95;100.00
18813;BME280;9534;51.140;6.296;2022-07-17T07:48:33;101623.34;;;19.14;100.00
18813;BME280;9534;51.140;6.296;2022-07-17T07:52:37;101641.47;;;19.51;100.00
18813;BME280;9534;51.140;6.296;2022-07-17T07:56:40;101637.38;;;19.08;100.00
18813;BME280;9534;51.140;6.296;2022-07-17T08:00:44;101643.50;;;19.56;100.00
18813;BME280;9534;51.140;6.296;2022-07-17T08:04:47;101649.81;;;19.79;100.00
18813;BME280;9534;51.140;6.296;2022-07-17T08:08:52;101647.63;;;19.92;100.00
18813;BME280;9534;51.140;6.296;2022-07-17T08:12:55;101647.97;;;19.96;100.00
18813;BME280;9534;51.140;6.296;2022-07-17T08:16:58;101646.63;;;20.38;100.00
18813;BME280;9534;51.140;6.296;2022-07-17T08:21:02;101654.06;;;20.65;100.00
18813;BME280;9534;51.140;6.296;2022-07-17T08:25:06;101676.63;;;20.97;100.00
18813;BME280;9534;51.140;6.296;2022-07-17T08:29:09;101665.75;;;22.09;96.62
18813;BME280;9534;51.140;6.296;2022-07-17T08:33:12;101673.13;;;23.76;92.87
18813;BME280;9534;51.140;6.296;2022-07-17T08:37:18;101672.94;;;24.99;76.14
18813;BME280;9534;51.140;6.296;2022-07-17T08:41:22;101673.50;;;25.56;73.33
18813;BME280;9534;51.140;6.296;2022-07-17T08:45:27;101671.72;;;26.48;66.47
18813;BME280;9534;51.140;6.296;2022-07-17T08:49:32;101665.47;;;26.08;76.11
18813;BME280;9534;51.140;6.296;2022-07-17T08:53:35;101663.75;;;26.17;64.43
18813;BME280;9534;51.140;6.296;2022-07-17T08:57:42;101666.13;;;26.86;59.87
18813;BME280;9534;51.140;6.296;2022-07-17T09:01:47;101672.22;;;24.22;70.33
18813;BME280;9534;51.140;6.296;2022-07-17T09:05:50;101655.56;;;24.82;67.70
18813;BME280;9534;51.140;6.296;2022-07-17T09:09:54;101653.38;;;27.32;59.69
18813;BME280;9534;51.140;6.296;2022-07-17T09:13:58;101653.34;;;24.69;70.30
18813;BME280;9534;51.140;6.296;2022-07-17T09:18:01;101649.41;;;24.75;66.12
18813;BME280;9534;51.140;6.296;2022-07-17T09:22:08;101656.66;;;24.56;64.95
18813;BME280;9534;51.140;6.296;2022-07-17T09:26:11;101650.66;;;24.08;72.09
18813;BME280;9534;51.140;6.296;2022-07-17T09:30:16;101648.75;;;25.68;61.18
18813;BME280;9534;51.140;6.296;2022-07-17T09:34:21;101647.63;;;25.74;65.37
18813;BME280;9534;51.140;6.296;2022-07-17T09:38:26;101655.00;;;27.38;56.25
18813;BME280;9534;51.140;6.296;2022-07-17T09:42:31;101661.19;;;25.42;56.32
18813;BME280;9534;51.140;6.296;2022-07-17T09:46:36;101654.34;;;24.28;63.65
18813;BME280;9534;51.140;6.296;2022-07-17T09:50:41;101658.78;;;25.89;58.70
18813;BME280;9534;51.140;6.296;2022-07-17T09:54:47;101669.28;;;27.13;53.21
18813;BME280;9534;51.140;6.296;2022-07-17T09:59:02;101666.97;;;27.25;55.80
18813;BME280;9534;51.140;6.296;2022-07-17T10:03:08;101655.97;;;25.89;59.19
18813;BME280;9534;51.140;6.296;2022-07-17T10:07:11;101660.91;;;27.08;52.04
18813;BME280;9534;51.140;6.296;2022-07-17T10:11:15;101669.75;;;27.82;49.69
18813;BME280;9534;51.140;6.296;2022-07-17T10:15:24;101666.84;;;27.35;48.77
18813;BME280;9534;51.140;6.296;2022-07-17T10:19:31;101670.91;;;27.81;48.92
18813;BME280;9534;51.140;6.296;2022-07-17T10:23:34;101656.19;;;26.65;54.86
18813;BME280;9534;51.140;6.296;2022-07-17T10:27:48;101660.41;;;27.01;53.93
18813;BME280;9534;51.140;6.296;2022-07-17T10:31:53;101664.31;;;27.05;52.23
18813;BME280;9534;51.140;6.296;2022-07-17T10:35:58;101671.94;;;26.61;52.71
18813;BME280;9534;51.140;6.296;2022-07-17T10:40:04;101662.84;;;28.16;48.36
18813;BME280;9534;51.140;6.296;2022-07-17T10:44:08;101665.16;;;26.67;51.52
18813;BME280;9534;51.140;6.296;2022-07-17T10:48:13;101658.63;;;26.33;56.00
18813;BME280;9534;51.140;6.296;2022-07-17T10:52:18;101656.94;;;26.81;48.64
18813;BME280;9534;51.140;6.296;2022-07-17T10:56:21;101651.78;;;27.26;48.90
18813;BME280;9534;51.140;6.296;2022-07-17T11:00:24;101659.59;;;26.52;51.76
18813;BME280;9534;51.140;6.296;2022-07-17T11:04:35;101663.22;;;28.10;47.21
18813;BME280;9534;51.140;6.296;2022-07-17T11:08:49;101658.78;;;28.64;45.91
18813;BME280;9534;51.140;6.296;2022-07-17T11:12:53;101656.16;;;28.31;46.28
18813;BME280;9534;51.140;6.296;2022-07-17T11:16:57;101657.13;;;27.74;47.71
18813;BME280;9534;51.140;6.296;2022-07-17T11:21:03;101654.91;;;27.48;46.62
18813;BME280;9534;51.140;6.296;2022-07-17T11:25:09;101653.91;;;26.67;48.61
18813;BME280;9534;51.140;6.296;2022-07-17T11:29:13;101644.94;;;26.65;48.00
18813;BME280;9534;51.140;6.296;2022-07-17T11:33:17;101638.41;;;27.65;48.05
18813;BME280;9534;51.140;6.296;2022-07-17T11:37:20;101640.63;;;27.16;47.76
18813;BME280;9534;51.140;6.296;2022-07-17T11:41:34;101643.06;;;28.21;42.70
18813;BME280;9534;51.140;6.296;2022-07-17T11:45:37;101638.56;;;28.02;43.19
18813;BME280;9534;51.140;6.296;2022-07-17T11:49:42;101624.34;;;26.36;46.05
18813;BME280;9534;51.140;6.296;2022-07-17T11:53:46;101629.88;;;26.46;48.18
18813;BME280;9534;51.140;6.296;2022-07-17T11:57:51;101620.47;;;26.28;47.38
18813;BME280;9534;51.140;6.296;2022-07-17T12:01:56;101618.03;;;27.26;45.49
18813;BME280;9534;51.140;6.296;2022-07-17T12:06:00;101619.22;;;29.51;39.92
18813;BME280;9534;51.140;6.296;2022-07-17T12:10:11;101617.28;;;28.70;41.74
18813;BME280;9534;51.140;6.296;2022-07-17T12:14:17;101622.22;;;28.96;41.81
18813;BME280;9534;51.140;6.296;2022-07-17T12:18:22;101626.44;;;28.01;40.73
18813;BME280;9534;51.140;6.296;2022-07-17T12:22:25;101625.13;;;27.94;42.14
18813;BME280;9534;51.140;6.296;2022-07-17T12:26:31;101620.28;;;28.41;40.81
18813;BME280;9534;51.140;6.296;2022-07-17T12:30:36;101607.09;;;28.37;41.21
18813;BME280;9534;51.140;6.296;2022-07-17T12:34:41;101606.44;;;28.03;39.38
18813;BME280;9534;51.140;6.296;2022-07-17T12:38:47;101605.34;;;27.75;40.28
18813;BME280;9534;51.140;6.296;2022-07-17T12:42:50;101599.91;;;28.26;41.57
18813;BME280;9534;51.140;6.296;2022-07-17T12:46:55;101610.25;;;29.17;37.33
18813;BME280;9534;51.140;6.296;2022-07-17T12:50:59;101614.31;;;29.11;42.09
18813;BME280;9534;51.140;6.296;2022-07-17T12:55:03;101607.97;;;30.19;38.44
18813;BME280;9534;51.140;6.296;2022-07-17T12:59:08;101612.00;;;30.61;37.29
18813;BME280;9534;51.140;6.296;2022-07-17T13:03:13;101596.59;;;28.93;39.39
18813;BME280;9534;51.140;6.296;2022-07-17T13:07:16;101599.78;;;29.90;35.15
18813;BME280;9534;51.140;6.296;2022-07-17T13:11:19;101580.16;;;29.58;34.94
18813;BME280;9534;51.140;6.296;2022-07-17T13:15:23;101586.59;;;30.26;35.53
18813;BME280;9534;51.140;6.296;2022-07-17T13:19:30;101585.78;;;30.12;36.59
18813;BME280;9534;51.140;6.296;2022-07-17T13:23:33;101579.97;;;29.68;37.19
18813;BME280;9534;51.140;6.296;2022-07-17T13:27:37;101593.72;;;31.63;34.61
18813;BME280;9534;51.140;6.296;2022-07-17T13:31:40;101594.22;;;30.61;34.45
18813;BME280;9534;51.140;6.296;2022-07-17T13:35:44;101587.13;;;30.01;35.88
18813;BME280;9534;51.140;6.296;2022-07-17T13:39:48;101588.72;;;29.53;35.79
18813;BME280;9534;51.140;6.296;2022-07-17T13:43:51;101573.16;;;30.31;35.30
18813;BME280;9534;51.140;6.296;2022-07-17T13:47:54;101570.50;;;30.13;35.17
18813;BME280;9534;51.140;6.296;2022-07-17T13:51:59;101560.31;;;29.63;35.86
18813;BME280;9534;51.140;6.296;2022-07-17T13:56:03;101569.63;;;30.26;34.56
18813;BME280;9534;51.140;6.296;2022-07-17T14:00:07;101560.59;;;29.62;35.45
18813;BME280;9534;51.140;6.296;2022-07-17T14:04:12;101555.72;;;30.51;32.99
18813;BME280;9534;51.140;6.296;2022-07-17T14:08:17;101560.66;;;30.81;32.64
18813;BME280;9534;51.140;6.296;2022-07-17T14:12:20;101560.72;;;29.57;34.91
18813;BME280;9534;51.140;6.296;2022-07-17T14:16:23;101550.03;;;30.29;35.33
18813;BME280;9534;51.140;6.296;2022-07-17T14:20:26;101545.03;;;28.23;38.31
18813;BME280;9534;51.140;6.296;2022-07-17T14:24:30;101535.72;;;29.64;38.05
18813;BME280;9534;51.140;6.296;2022-07-17T14:28:33;101537.81;;;30.34;36.07
18813;BME280;9534;51.140;6.296;2022-07-17T14:32:37;101542.31;;;30.57;35.61
18813;BME280;9534;51.140;6.296;2022-07-17T14:36:40;101530.88;;;30.40;34.63
18813;BME280;9534;51.140;6.296;2022-07-17T14:40:44;101526.63;;;30.29;35.13
18813;BME280;9534;51.140;6.296;2022-07-17T14:44:47;101509.28;;;30.88;34.84
18813;BME280;9534;51.140;6.296;2022-07-17T14:48:50;101513.47;;;30.25;36.26
18813;BME280;9534;51.140;6.296;2022-07-17T14:52:53;101507.34;;;30.09;35.44
18813;BME280;9534;51.140;6.296;2022-07-17T14:56:58;101502.34;;;30.94;34.72
18813;BME280;9534;51.140;6.296;2022-07-17T15:01:01;101507.28;;;31.57;32.62
18813;BME280;9534;51.140;6.296;2022-07-17T15:05:06;101496.81;;;30.23;33.66
18813;BME280;9534;51.140;6.296;2022-07-17T15:09:10;101504.84;;;30.51;32.54
18813;BME280;9534;51.140;6.296;2022-07-17T15:13:15;101498.91;;;30.53;32.72
18813;BME280;9534;51.140;6.296;2022-07-17T15:17:18;101492.75;;;31.03;32.48
18813;BME280;9534;51.140;6.296;2022-07-17T15:21:22;101485.66;;;29.69;33.42
18813;BME280;9534;51.140;6.296;2022-07-17T15:25:45;101499.38;;;30.99;31.34
18813;BME280;9534;51.140;6.296;2022-07-17T15:29:49;101499.19;;;29.94;32.18
18813;BME280;9534;51.140;6.296;2022-07-17T15:33:52;101500.44;;;30.59;31.92
18813;BME280;9534;51.140;6.296;2022-07-17T15:37:55;101492.78;;;30.02;32.32
18813;BME280;9534;51.140;6.296;2022-07-17T15:42:00;101504.78;;;31.56;30.62
18813;BME280;9534;51.140;6.296;2022-07-17T15:46:04;101499.72;;;31.06;32.08
18813;BME280;9534;51.140;6.296;2022-07-17T15:50:08;101496.38;;;31.26;31.18
18813;BME280;9534;51.140;6.296;2022-07-17T15:54:11;101500.75;;;32.13;30.38
18813;BME280;9534;51.140;6.296;2022-07-17T15:58:14;101491.56;;;30.30;30.97
18813;BME280;9534;51.140;6.296;2022-07-17T16:02:18;101497.25;;;31.35;30.23
18813;BME280;9534;51.140;6.296;2022-07-17T16:06:21;101487.38;;;29.92;31.02
18813;BME280;9534;51.140;6.296;2022-07-17T16:10:24;101477.72;;;29.44;30.59
18813;BME280;9534;51.140;6.296;2022-07-17T16:14:27;101480.34;;;30.03;30.12
18813;BME280;9534;51.140;6.296;2022-07-17T16:18:32;101475.44;;;29.95;29.51
18813;BME280;9534;51.140;6.296;2022-07-17T16:22:35;101470.72;;;29.69;29.95
18813;BME280;9534;51.140;6.296;2022-07-17T16:26:38;101474.66;;;31.52;27.53
18813;BME280;9534;51.140;6.296;2022-07-17T16:30:42;101465.56;;;29.84;29.47
18813;BME280;9534;51.140;6.296;2022-07-17T16:34:47;101451.91;;;29.64;30.92
18813;BME280;9534;51.140;6.296;2022-07-17T16:38:50;101440.41;;;28.16;32.26
18813;BME280;9534;51.140;6.296;2022-07-17T16:42:53;101430.06;;;28.76;32.44
18813;BME280;9534;51.140;6.296;2022-07-17T16:46:56;101432.25;;;28.92;31.30
18813;BME280;9534;51.140;6.296;2022-07-17T16:51:01;101427.47;;;29.33;31.20
18813;BME280;9534;51.140;6.296;2022-07-17T16:55:05;101420.44;;;30.28;30.77
18813;BME280;9534;51.140;6.296;2022-07-17T16:59:10;101412.69;;;29.76;32.34
18813;BME280;9534;51.140;6.296;2022-07-17T17:03:13;101411.34;;;28.53;32.88
18813;BME280;9534;51.140;6.296;2022-07-17T17:07:18;101407.00;;;29.27;32.49
18813;BME280;9534;51.140;6.296;2022-07-17T17:11:21;101390.97;;;29.63;33.77
18813;BME280;9534;51.140;6.296;2022-07-17T17:15:24;101389.00;;;29.50;33.49
18813;BME280;9534;51.140;6.296;2022-07-17T17:19:27;101386.25;;;28.97;35.39
18813;BME280;9534;51.140;6.296;2022-07-17T17:23:31;101393.94;;;28.78;35.87
18813;BME280;9534;51.140;6.296;2022-07-17T17:27:34;101385.25;;;28.74;35.99
18813;BME280;9534;51.140;6.296;2022-07-17T17:31:38;101373.69;;;29.29;36.38
18813;BME280;9534;51.140;6.296;2022-07-17T17:35:41;101373.69;;;29.78;36.12
18813;BME280;9534;51.140;6.296;2022-07-17T17:39:45;101366.41;;;29.01;36.35
18813;BME280;9534;51.140;6.296;2022-07-17T17:43:49;101381.66;;;29.63;34.36
18813;BME280;9534;51.140;6.296;2022-07-17T17:47:52;101377.91;;;29.67;34.99
18813;BME280;9534;51.140;6.296;2022-07-17T17:51:55;101380.69;;;28.92;35.41
18813;BME280;9534;51.140;6.296;2022-07-17T17:55:59;101381.16;;;28.98;35.10
18813;BME280;9534;51.140;6.296;2022-07-17T18:00:04;101384.56;;;29.93;34.52
18813;BME280;9534;51.140;6.296;2022-07-17T18:04:08;101367.50;;;28.47;34.61
18813;BME280;9534;51.140;6.296;2022-07-17T18:08:11;101365.31;;;28.12;36.15
18813;BME280;9534;51.140;6.296;2022-07-17T18:12:16;101375.16;;;27.59;36.00
18813;BME280;9534;51.140;6.296;2022-07-17T18:16:19;101363.25;;;28.31;35.47
18813;BME280;9534;51.140;6.296;2022-07-17T18:20:23;101377.22;;;28.09;35.83
18813;BME280;9534;51.140;6.296;2022-07-17T18:24:26;101381.72;;;28.23;35.83
18813;BME280;9534;51.140;6.296;2022-07-17T18:28:30;101383.22;;;28.34;35.49
18813;BME280;9534;51.140;6.296;2022-07-17T18:32:33;101389.31;;;28.23;33.80
18813;BME280;9534;51.140;6.296;2022-07-17T18:36:37;101395.50;;;27.93;35.79
18813;BME280;9534;51.140;6.296;2022-07-17T18:40:40;101399.41;;;27.37;36.04
18813;BME280;9534;51.140;6.296;2022-07-17T18:44:44;101393.72;;;27.23;35.96
18813;BME280;9534;51.140;6.296;2022-07-17T18:48:48;101397.06;;;26.78;37.50
18813;BME280;9534;51.140;6.296;2022-07-17T18:52:51;101389.66;;;26.64;37.73
18813;BME280;9534;51.140;6.296;2022-07-17T18:56:54;101391.47;;;26.22;37.42
18813;BME280;9534;51.140;6.296;2022-07-17T19:00:58;101386.56;;;26.04;39.10
18813;BME280;9534;51.140;6.296;2022-07-17T19:05:02;101386.59;;;25.60;39.08
18813;BME280;9534;51.140;6.296;2022-07-17T19:09:05;101381.44;;;25.39;40.43
18813;BME280;9534;51.140;6.296;2022-07-17T19:13:08;101382.97;;;25.11;42.43
18813;BME280;9534;51.140;6.296;2022-07-17T19:17:13;101379.50;;;24.56;46.73
18813;BME280;9534;51.140;6.296;2022-07-17T19:21:18;101368.66;;;24.30;46.44
18813;BME280;9534;51.140;6.296;2022-07-17T19:25:21;101361.41;;;24.04;47.01
18813;BME280;9534;51.140;6.296;2022-07-17T19:29:24;101367.81;;;23.79;49.09
18813;BME280;9534;51.140;6.296;2022-07-17T19:33:28;101371.13;;;23.42;51.96
18813;BME280;9534;51.140;6.296;2022-07-17T19:37:31;101382.59;;;22.74;62.98
18813;BME280;9534;51.140;6.296;2022-07-17T19:41:35;101388.41;;;22.57;67.04
18813;BME280;9534;51.140;6.296;2022-07-17T19:45:39;101388.78;;;22.35;68.15
18813;BME280;9534;51.140;6.296;2022-07-17T19:49:44;101374.47;;;22.26;67.37
18813;BME280;9534;51.140;6.296;2022-07-17T19:53:47;101379.69;;;22.13;68.30
18813;BME280;9534;51.140;6.296;2022-07-17T19:57:50;101369.53;;;21.97;71.01
18813;BME280;9534;51.140;6.296;2022-07-17T20:01:58;101380.72;;;21.70;80.20
18813;BME280;9534;51.140;6.296;2022-07-17T20:06:03;101385.88;;;21.30;86.59
18813;BME280;9534;51.140;6.296;2022-07-17T20:10:07;101387.22;;;21.02;85.36
18813;BME280;9534;51.140;6.296;2022-07-17T20:14:11;101393.00;;;20.79;89.69
18813;BME280;9534;51.140;6.296;2022-07-17T20:18:15;101381.75;;;20.69;89.45
18813;BME280;9534;51.140;6.296;2022-07-17T20:22:19;101377.13;;;20.58;93.64
18813;BME280;9534;51.140;6.296;2022-07-17T20:26:22;101383.31;;;20.22;98.82
18813;BME280;9534;51.140;6.296;2022-07-17T20:30:25;101373.59;;;20.08;98.15
18813;BME280;9534;51.140;6.296;2022-07-17T20:34:28;101378.91;;;19.93;98.64
18813;BME280;9534;51.140;6.296;2022-07-17T20:38:33;101373.28;;;19.88;99.36
18813;BME280;9534;51.140;6.296;2022-07-17T20:42:36;101373.63;;;19.75;100.00
18813;BME280;9534;51.140;6.296;2022-07-17T20:46:39;101382.81;;;19.59;100.00
18813;BME280;9534;51.140;6.296;2022-07-17T20:50:42;101380.34;;;19.46;100.00
18813;BME280;9534;51.140;6.296;2022-07-17T20:54:49;101371.81;;;19.36;100.00
18813;BME280;9534;51.140;6.296;2022-07-17T20:58:52;101373.66;;;19.31;100.00
18813;BME280;9534;51.140;6.296;2022-07-17T21:02:55;101365.56;;;19.01;100.00
18813;BME280;9534;51.140;6.296;2022-07-17T21:06:58;101357.81;;;19.03;100.00
18813;BME280;9534;51.140;6.296;2022-07-17T21:11:04;101358.53;;;19.10;100.00
18813;BME280;9534;51.140;6.296;2022-07-17T21:15:09;101363.38;;;19.03;100.00
18813;BME280;9534;51.140;6.296;2022-07-17T21:19:13;101361.19;;;18.77;100.00
18813;BME280;9534;51.140;6.296;2022-07-17T21:23:16;101362.78;;;18.73;100.00
18813;BME280;9534;51.140;6.296;2022-07-17T21:27:20;101359.78;;;18.63;100.00